createdAt,value
2022-12-26T00:04:50.930Z,99880.03
2022-12-26T00:09:44.902Z,99877.38
2022-12-26T00:14:46.283Z,99868.97
2022-12-26T00:19:47.707Z,99862.66
2022-12-26T00:24:49.051Z,99869.38
2022-12-26T00:29:50.438Z,99837.09
2022-12-26T00:34:51.759Z,99849.16
2022-12-26T00:39:53.105Z,99848.19
2022-12-26T00:44:54.493Z,99856.19
2022-12-26T00:50:12.389Z,99859.53
2022-12-26T00:55:15.872Z,99872.75
2022-12-26T01:00:17.324Z,99872.06
2022-12-26T01:05:18.752Z,99852.97
2022-12-26T01:10:20.168Z,99862.09
2022-12-26T01:15:21.548Z,99865.03
2022-12-26T01:20:23.051Z,99876.41
2022-12-26T01:25:24.469Z,99884.81
2022-12-26T01:30:25.755Z,99887.47
2022-12-26T01:35:27.105Z,99875.84
2022-12-26T01:40:28.418Z,99870.94
2022-12-26T01:45:31.386Z,99892.13
2022-12-26T01:50:44.900Z,99910.50
2022-12-26T01:55:51.904Z,99899.25
2022-12-26T02:00:54.463Z,99897.44
2022-12-26T02:05:58.918Z,99898.13
2022-12-26T02:11:07.853Z,99909.94
2022-12-26T02:16:13.446Z,99924.00
2022-12-26T02:21:41.365Z,99915.25
2022-12-26T02:27:04.549Z,99919.91
2022-12-26T02:32:19.779Z,99931.00
2022-12-26T02:37:40.001Z,99933.66
2022-12-26T02:42:47.368Z,99923.84
2022-12-26T02:48:10.048Z,99921.31
2022-12-26T02:53:49.481Z,99920.31
2022-12-26T02:59:54.207Z,99922.44
2022-12-26T03:05:07.631Z,99926.06
2022-12-26T03:10:38.704Z,99927.78
2022-12-26T03:16:11.826Z,99898.41
2022-12-26T03:21:16.570Z,99917.94
2022-12-26T03:26:40.203Z,99924.00
2022-12-26T03:31:41.567Z,99909.84
2022-12-26T03:37:00.969Z,99928.91
2022-12-26T03:42:31.781Z,99905.47
2022-12-26T03:48:03.835Z,99922.75
2022-12-26T03:53:36.374Z,99887.63
2022-12-26T03:59:05.242Z,99899.84
2022-12-26T04:04:29.590Z,99895.50
2022-12-26T04:10:03.610Z,99912.22
2022-12-26T04:15:43.414Z,99906.69
2022-12-26T04:21:06.657Z,99899.03
2022-12-26T04:26:33.529Z,99898.00
2022-12-26T04:32:06.709Z,99914.84
2022-12-26T04:37:36.583Z,99920.47
2022-12-26T04:43:00.150Z,99930.00
2022-12-26T04:48:20.529Z,99925.94
2022-12-26T04:53:22.035Z,99919.19
2022-12-26T04:58:24.309Z,99904.03
2022-12-26T05:03:44.410Z,99918.50
2022-12-26T05:09:05.911Z,99933.09
2022-12-26T05:14:07.297Z,99900.53
2022-12-26T05:19:36.861Z,99887.91
2022-12-26T05:24:59.340Z,99897.03
2022-12-26T05:30:01.212Z,99901.38
2022-12-26T05:35:02.567Z,99917.94
2022-12-26T05:40:04.352Z,99921.88
2022-12-26T05:45:06.371Z,99908.41
2022-12-26T05:50:08.362Z,99934.25
2022-12-26T05:55:09.922Z,99904.88
2022-12-26T06:00:11.912Z,99943.53
2022-12-26T06:05:13.364Z,99953.78
2022-12-26T06:10:14.777Z,99932.16
2022-12-26T06:15:16.285Z,99937.19
2022-12-26T06:20:17.599Z,99950.25
2022-12-26T06:25:18.875Z,99942.97
2022-12-26T06:30:20.247Z,99955.31
2022-12-26T06:35:22.447Z,99956.84
2022-12-26T06:40:23.750Z,99973.28
2022-12-26T06:45:25.090Z,99950.00
2022-12-26T06:50:27.034Z,99964.03
2022-12-26T06:55:28.488Z,99966.69
2022-12-26T07:00:30.335Z,99958.97
2022-12-26T07:05:31.783Z,99961.78
2022-12-26T07:10:37.051Z,99945.75
2022-12-26T07:15:38.352Z,99952.50
2022-12-26T07:20:39.734Z,99949.28
2022-12-26T07:25:41.059Z,99966.13
2022-12-26T07:30:50.018Z,99966.25
2022-12-26T07:35:51.341Z,99984.50
2022-12-26T07:40:56.206Z,99985.09
2022-12-26T07:45:57.758Z,99998.84
2022-12-26T07:51:01.989Z,100002.06
2022-12-26T07:56:03.975Z,100013.66
2022-12-26T08:01:06.880Z,100020.09
2022-12-26T08:06:11.836Z,100012.22
2022-12-26T08:11:20.196Z,100008.56
2022-12-26T08:16:21.603Z,100022.22
2022-12-26T08:21:23.137Z,100001.94
2022-12-26T08:26:24.573Z,99982.72
2022-12-26T08:36:32.293Z,100002.09
2022-12-26T08:41:33.680Z,99993.81
2022-12-26T08:46:36.900Z,100012.94
2022-12-26T08:51:39.518Z,100037.19
2022-12-26T08:56:41.302Z,100027.50
2022-12-26T09:01:42.817Z,100055.13
2022-12-26T09:06:44.223Z,100053.13
2022-12-26T09:11:45.603Z,100062.53
2022-12-26T09:16:51.089Z,100074.47
2022-12-26T09:22:12.680Z,100058.44
2022-12-26T09:27:14.071Z,100089.91
2022-12-26T09:32:15.447Z,100092.09
2022-12-26T09:37:16.859Z,100107.13
2022-12-26T09:42:43.328Z,100099.72
2022-12-26T09:48:06.600Z,100094.53
2022-12-26T09:53:18.517Z,100081.91
2022-12-26T09:58:48.824Z,100084.03
2022-12-26T10:03:59.032Z,100104.66
2022-12-26T10:09:25.469Z,100118.88
2022-12-26T10:15:04.384Z,100119.13
2022-12-26T10:20:25.655Z,100093.84
2022-12-26T10:25:37.674Z,100098.78
2022-12-26T10:30:42.504Z,100087.84
2022-12-26T10:35:45.770Z,100092.03
2022-12-26T10:40:50.385Z,100128.09
2022-12-26T10:45:57.831Z,100122.91
2022-12-26T10:50:59.381Z,100087.91
2022-12-26T10:56:01.793Z,100128.66
2022-12-26T11:01:28.274Z,100128.94
2022-12-26T11:06:38.096Z,100130.31
2022-12-26T11:11:48.419Z,100133.47
2022-12-26T11:16:50.223Z,100136.63
2022-12-26T11:21:51.602Z,100134.41
2022-12-26T11:27:13.050Z,100125.69
2022-12-26T11:32:20.188Z,100132.72
2022-12-26T11:37:28.548Z,100142.94
2022-12-26T11:42:30.169Z,100135.78
2022-12-26T11:47:31.751Z,100137.78
2022-12-26T11:52:48.119Z,100130.59
2022-12-26T11:58:10.461Z,100134.88
2022-12-26T12:03:31.126Z,100123.22
2022-12-26T12:08:38.455Z,100120.72
2022-12-26T12:13:52.978Z,100094.09
2022-12-26T12:19:38.835Z,100118.22
2022-12-26T12:25:16.291Z,100103.31
2022-12-26T12:30:24.446Z,100092.63
2022-12-26T12:35:42.126Z,100103.69
2022-12-26T12:41:06.389Z,100090.50
2022-12-26T12:46:27.991Z,100091.47
2022-12-26T12:52:00.151Z,100080.06
2022-12-26T12:57:04.577Z,100087.69
2022-12-26T13:02:38.341Z,100109.88
2022-12-26T13:07:47.227Z,100080.34
2022-12-26T13:12:51.389Z,100061.13
2022-12-26T13:18:14.337Z,100079.69
2022-12-26T13:23:52.291Z,100080.56
2022-12-26T13:29:02.477Z,100073.97
2022-12-26T13:34:07.545Z,100077.19
2022-12-26T13:39:11.925Z,100074.00
2022-12-26T13:44:19.846Z,100049.81
2022-12-26T13:49:40.615Z,100054.59
2022-12-26T13:54:48.838Z,100055.56
2022-12-26T14:00:01.301Z,100043.22
2022-12-26T14:05:18.856Z,100061.59
2022-12-26T14:10:40.315Z,100091.91
2022-12-26T14:15:56.386Z,100090.28
2022-12-26T14:21:20.494Z,100086.25
2022-12-26T14:26:42.318Z,100066.94
2022-12-26T14:31:56.601Z,100077.19
2022-12-26T14:37:12.858Z,100092.13
2022-12-26T14:42:42.225Z,100079.81
2022-12-26T14:47:46.580Z,100087.78
2022-12-26T14:52:49.000Z,100096.19
2022-12-26T14:57:50.686Z,100102.50
2022-12-26T15:02:58.299Z,100102.16
2022-12-26T15:08:17.027Z,100098.53
2022-12-26T15:13:36.267Z,100102.75
2022-12-26T15:19:06.667Z,100098.00
2022-12-26T15:24:13.790Z,100125.03
2022-12-26T15:29:41.373Z,100130.59
2022-12-26T15:35:04.417Z,100114.88
2022-12-26T15:40:14.970Z,100110.56
2022-12-26T15:45:35.899Z,100088.91
2022-12-26T15:50:48.265Z,100097.91
2022-12-26T15:56:07.664Z,100106.31
2022-12-26T16:01:10.894Z,100108.28
2022-12-26T16:06:44.694Z,100080.72
2022-12-26T16:11:57.141Z,100106.59
2022-12-26T16:17:13.545Z,100111.31
2022-12-26T16:22:46.318Z,100143.13
2022-12-26T16:27:51.336Z,100129.72
2022-12-26T16:32:53.729Z,100154.28
2022-12-26T16:37:58.059Z,100175.78
2022-12-26T16:43:24.055Z,100177.09
2022-12-26T16:48:28.023Z,100195.16
2022-12-26T16:53:35.493Z,100219.69
2022-12-26T16:58:37.950Z,100225.84
2022-12-26T17:03:39.358Z,100218.22
2022-12-26T17:08:47.359Z,100211.81
2022-12-26T17:13:52.760Z,100217.25
2022-12-26T17:18:56.733Z,100226.91
2022-12-26T17:24:07.424Z,100220.88
2022-12-26T17:29:48.086Z,100195.38
2022-12-26T17:34:49.719Z,100210.97
2022-12-26T17:39:59.011Z,100205.66
2022-12-26T17:45:04.187Z,100164.69
2022-12-26T17:50:05.780Z,100174.22
2022-12-26T17:55:16.203Z,100195.75
2022-12-26T18:00:20.632Z,100236.69
2022-12-26T18:05:22.433Z,100255.66
2022-12-26T18:10:29.021Z,100267.50
2022-12-26T18:15:31.158Z,100285.41
2022-12-26T18:20:32.757Z,100292.09
2022-12-26T18:25:34.188Z,100316.34
2022-12-26T18:30:35.617Z,100322.19
2022-12-26T18:35:42.219Z,100342.63
2022-12-26T18:40:47.073Z,100347.84
2022-12-26T18:45:48.736Z,100363.19
2022-12-26T18:50:50.352Z,100375.03
2022-12-26T18:55:51.735Z,100373.59
2022-12-26T19:00:53.233Z,100385.00
2022-12-26T19:05:54.575Z,100378.13
2022-12-26T19:10:56.110Z,100395.09
2022-12-26T19:15:59.962Z,100409.13
2022-12-26T19:21:01.713Z,100422.75
2022-12-26T19:26:09.314Z,100426.97
2022-12-26T19:31:15.163Z,100450.72
2022-12-26T19:36:17.196Z,100476.00
2022-12-26T19:41:18.666Z,100462.22
2022-12-26T19:46:20.112Z,100465.44
2022-12-26T19:51:22.424Z,100485.53
2022-12-26T19:56:26.147Z,100489.47
2022-12-26T20:01:30.696Z,100498.47
2022-12-26T20:06:35.000Z,100502.41
2022-12-26T20:11:39.907Z,100488.41
2022-12-26T20:22:03.108Z,100523.66
2022-12-26T20:27:04.612Z,100544.28
2022-12-26T20:32:06.095Z,100557.75
2022-12-26T20:37:07.460Z,100565.94
2022-12-26T20:42:08.868Z,100589.50
2022-12-26T20:47:10.273Z,100609.91
2022-12-26T20:52:11.752Z,100606.06
2022-12-26T20:57:13.136Z,100631.50
2022-12-26T21:02:14.665Z,100646.69
2022-12-26T21:07:16.291Z,100650.91
2022-12-26T21:12:17.884Z,100650.22
2022-12-26T21:17:19.692Z,100686.34
2022-12-26T21:22:21.227Z,100692.22
2022-12-26T21:27:22.721Z,100705.97
2022-12-26T21:32:24.098Z,100726.88
2022-12-26T21:37:44.251Z,100745.25
2022-12-26T21:42:46.194Z,100743.66
2022-12-26T21:47:47.539Z,100763.47
2022-12-26T21:52:48.820Z,100766.88
2022-12-26T21:57:50.159Z,100776.44
2022-12-26T22:03:10.343Z,100778.91
2022-12-26T22:08:11.830Z,100793.94
2022-12-26T22:13:13.296Z,100808.59
2022-12-26T22:18:14.693Z,100817.34
2022-12-26T22:23:16.096Z,100811.13
2022-12-26T22:28:23.023Z,100836.56
2022-12-26T22:33:25.106Z,100859.69
2022-12-26T22:38:27.885Z,100872.50
2022-12-26T22:43:29.654Z,100873.72
2022-12-26T22:48:31.140Z,100882.66
2022-12-26T22:53:32.563Z,100901.03
2022-12-26T22:58:34.288Z,100916.03
2022-12-26T23:03:35.767Z,100921.56
2022-12-26T23:08:37.336Z,100933.78
2022-12-26T23:13:39.059Z,100949.38
2022-12-26T23:19:04.267Z,100946.56
2022-12-26T23:24:06.335Z,100945.47
2022-12-26T23:29:29.133Z,100918.13
2022-12-26T23:34:31.282Z,100935.22
2022-12-26T23:39:32.590Z,100947.38
2022-12-26T23:44:34.055Z,100926.88
2022-12-26T23:49:35.467Z,100939.13
2022-12-26T23:54:36.986Z,100953.75
2022-12-26T23:59:38.355Z,100940.34
